Time;durP1;ratioP1;P1;durP2;ratioP2;P2;SDS_P1;SDS_P2;PMS_P1;PMS_P2;Temp;Humidity;BMP_temperature;BMP_pressure;BME280_temperature;BME280_humidity;BME280_pressure;Samples;Min_cycle;Max_cycle;Signal;HPM_P1;HPM_P2
2021/04/27 00:01:13;;;;;;;8.35;3.42;;;;;;;;;;5055655;28;20044;-79
2021/04/27 00:03:38;;;;;;;9.50;3.63;;;;;;;;;;5055476;28;20021;-79
2021/04/27 00:06:03;;;;;;;5.43;2.60;;;;;;;;;;5055722;28;20046;-79
2021/04/27 00:08:29;;;;;;;5.28;2.90;;;;;;;;;;5054064;28;20048;-79
2021/04/27 00:10:54;;;;;;;7.85;3.08;;;;;;;;;;5055403;28;20029;-79
2021/04/27 00:13:19;;;;;;;7.78;3.20;;;;;;;;;;5054083;28;20439;-79
2021/04/27 00:15:44;;;;;;;15.93;3.40;;;;;;;;;;5055441;28;20107;-79
2021/04/27 00:18:10;;;;;;;7.07;3.38;;;;;;;;;;5055531;28;20368;-79
2021/04/27 00:20:35;;;;;;;7.05;2.70;;;;;;;;;;5055383;28;20374;-79
2021/04/27 00:23:00;;;;;;;6.75;3.30;;;;;;;;;;5053894;28;20455;-79
2021/04/27 00:25:25;;;;;;;9.38;3.35;;;;;;;;;;5070605;28;20048;-79
2021/04/27 00:27:51;;;;;;;8.05;3.50;;;;;;;;;;5054991;28;20435;-79
2021/04/27 00:30:17;;;;;;;10.40;3.72;;;;;;;;;;5053796;28;20104;-79
2021/04/27 00:32:43;;;;;;;13.32;4.18;;;;;;;;;;5054805;28;20020;-79
2021/04/27 00:35:09;;;;;;;11.30;3.53;;;;;;;;;;5055104;28;20016;-79
2021/04/27 00:37:34;;;;;;;8.38;3.88;;;;;;;;;;5054944;28;20449;-79
2021/04/27 00:39:59;;;;;;;12.77;3.75;;;;;;;;;;5054823;28;20005;-79
2021/04/27 00:42:45;;;;;;;7.72;3.65;;;;;;;;;;5053613;28;20021;-79
2021/04/27 00:45:12;;;;;;;9.48;3.75;;;;;;;;;;5053341;28;20021;-79
2021/04/27 00:47:37;;;;;;;8.65;2.85;;;;;;;;;;5054815;28;20025;-79
2021/04/27 00:50:03;;;;;;;16.63;3.50;;;;;;;;;;5054699;28;20062;-79
2021/04/27 00:52:28;;;;;;;6.18;3.15;;;;;;;;;;5053246;28;20017;-79
2021/04/27 00:54:54;;;;;;;9.38;3.65;;;;;;;;;;5054503;28;20020;-79
2021/04/27 00:57:20;;;;;;;13.25;3.90;;;;;;;;;;5054654;28;20518;-79
2021/04/27 00:59:45;;;;;;;11.90;4.07;;;;;;;;;;5053258;28;20024;-78
2021/04/27 01:02:10;;;;;;;9.27;3.60;;;;;;;;;;5054417;28;20017;-78
2021/04/27 01:04:35;;;;;;;12.55;3.92;;;;;;;;;;5053225;28;20024;-78
2021/04/27 01:07:00;;;;;;;8.67;3.63;;;;;;;;;;5054349;28;20017;-79
2021/04/27 01:09:32;;;;;;;8.03;4.00;;;;;;;;;;5054401;28;20017;-78
2021/04/27 01:12:03;;;;;;;12.47;3.67;;;;;;;;;;5052851;28;20051;-78
2021/04/27 01:14:40;;;;;;;7.67;3.47;;;;;;;;;;5054271;28;20495;-78
2021/04/27 01:17:06;;;;;;;8.33;3.70;;;;;;;;;;5052825;28;20024;-79
2021/04/27 01:19:38;;;;;;;16.03;4.20;;;;;;;;;;5054469;28;20031;-78
2021/04/27 01:22:06;;;;;;;6.73;3.73;;;;;;;;;;5054247;28;20025;-78
2021/04/27 01:24:33;;;;;;;12.77;3.50;;;;;;;;;;5052589;28;20270;-78
2021/04/27 01:27:00;;;;;;;11.50;4.13;;;;;;;;;;5053985;28;20361;-79
2021/04/27 01:29:28;;;;;;;7.10;3.63;;;;;;;;;;5053884;28;20161;-79
2021/04/27 01:31:54;;;;;;;13.87;3.87;;;;;;;;;;5053970;28;20039;-78
2021/04/27 01:34:21;;;;;;;10.13;4.50;;;;;;;;;;5052611;28;20017;-78
2021/04/27 01:36:47;;;;;;;8.13;3.77;;;;;;;;;;5052391;28;20472;-78
2021/04/27 01:39:12;;;;;;;7.80;3.70;;;;;;;;;;5054137;28;20021;-79
2021/04/27 01:41:37;;;;;;;8.13;3.97;;;;;;;;;;5052378;28;20021;-78
2021/04/27 01:44:04;;;;;;;8.77;3.50;;;;;;;;;;5069039;28;20522;-78
2021/04/27 01:46:29;;;;;;;16.53;4.10;;;;;;;;;;5053962;28;20037;-78
2021/04/27 01:48:55;;;;;;;14.43;3.97;;;;;;;;;;5052932;28;20107;-78
2021/04/27 01:51:20;;;;;;;8.20;3.77;;;;;;;;;;5053671;28;20017;-79
2021/04/27 01:53:45;;;;;;;9.07;3.70;;;;;;;;;;5052996;28;20412;-78
2021/04/27 01:56:10;;;;;;;8.60;3.90;;;;;;;;;;5053525;28;20009;-78
2021/04/27 01:58:36;;;;;;;5.40;3.27;;;;;;;;;;5052006;28;20047;-78
2021/04/27 02:01:02;;;;;;;11.03;3.90;;;;;;;;;;5069073;28;20361;-78
2021/04/27 02:03:28;;;;;;;8.83;3.73;;;;;;;;;;5031968;28;20066;-78
2021/04/27 02:05:53;;;;;;;12.60;3.57;;;;;;;;;;5048655;28;20119;-78
2021/04/27 02:08:18;;;;;;;8.00;3.97;;;;;;;;;;5039176;28;20370;-78
2021/04/27 02:10:44;;;;;;;7.27;4.03;;;;;;;;;;5051843;28;20025;-79
2021/04/27 02:13:12;;;;;;;10.37;4.03;;;;;;;;;;5051761;28;20025;-78
2021/04/27 02:15:37;;;;;;;10.60;3.77;;;;;;;;;;5051637;28;20499;-78
2021/04/27 02:18:11;;;;;;;6.27;3.37;;;;;;;;;;5053223;28;20021;-79
2021/04/27 02:20:36;;;;;;;7.03;3.40;;;;;;;;;;5051579;28;20481;-78
2021/04/27 02:23:02;;;;;;;8.20;3.53;;;;;;;;;;5053164;28;20047;-79
2021/04/27 02:25:28;;;;;;;10.33;3.87;;;;;;;;;;5053098;28;20373;-78
2021/04/27 02:27:54;;;;;;;12.80;3.93;;;;;;;;;;5052850;28;20028;-78
2021/04/27 02:30:20;;;;;;;10.97;3.63;;;;;;;;;;5053126;28;20025;-78
2021/04/27 02:32:46;;;;;;;10.37;3.60;;;;;;;;;;5051340;28;20021;-78
2021/04/27 02:35:13;;;;;;;13.23;3.70;;;;;;;;;;5052948;28;20021;-78
2021/04/27 02:37:40;;;;;;;9.83;4.37;;;;;;;;;;5051244;28;20469;-78
2021/04/27 02:40:06;;;;;;;6.43;3.70;;;;;;;;;;5052946;28;20021;-78
2021/04/27 02:42:33;;;;;;;13.07;4.00;;;;;;;;;;5051575;28;20031;-79
2021/04/27 02:44:58;;;;;;;8.30;3.67;;;;;;;;;;5051246;28;20040;-79
2021/04/27 02:47:23;;;;;;;6.77;3.57;;;;;;;;;;5051504;28;20017;-78
2021/04/27 02:49:49;;;;;;;12.33;4.00;;;;;;;;;;5051349;28;20465;-78
2021/04/27 02:52:14;;;;;;;9.83;4.23;;;;;;;;;;5052658;28;20459;-78
2021/04/27 02:54:39;;;;;;;6.13;3.43;;;;;;;;;;5052475;28;20021;-78
2021/04/27 02:57:04;;;;;;;6.63;3.70;;;;;;;;;;5052943;28;20211;-78
2021/04/27 02:59:29;;;;;;;10.13;4.00;;;;;;;;;;5052626;28;20021;-78
2021/04/27 03:01:55;;;;;;;16.20;4.50;;;;;;;;;;5051150;28;20025;-78
2021/04/27 03:04:20;;;;;;;9.50;4.20;;;;;;;;;;5052855;28;20016;-78
2021/04/27 03:06:45;;;;;;;11.63;4.00;;;;;;;;;;5055248;28;20373;-78
2021/04/27 03:09:10;;;;;;;9.53;3.97;;;;;;;;;;5055454;28;20021;-79
2021/04/27 03:11:35;;;;;;;8.07;4.03;;;;;;;;;;5056751;28;20024;-78
2021/04/27 03:14:01;;;;;;;14.17;4.60;;;;;;;;;;5056354;28;20150;-78
2021/04/27 03:16:26;;;;;;;8.17;4.17;;;;;;;;;;5056573;28;20020;-78
2021/04/27 03:18:51;;;;;;;11.43;4.10;;;;;;;;;;5054993;28;20017;-79
2021/04/27 03:21:16;;;;;;;9.87;3.80;;;;;;;;;;5055200;28;20028;-79
2021/04/27 03:23:42;;;;;;;8.67;4.40;;;;;;;;;;5056284;28;20052;-78
2021/04/27 03:26:07;;;;;;;10.13;4.60;;;;;;;;;;5055066;28;20373;-78
2021/04/27 03:28:32;;;;;;;10.40;4.10;;;;;;;;;;5056411;28;20020;-78
2021/04/27 03:30:58;;;;;;;10.00;4.37;;;;;;;;;;5056079;28;20013;-78
2021/04/27 03:33:23;;;;;;;13.50;4.23;;;;;;;;;;5056536;28;20033;-78
2021/04/27 03:35:48;;;;;;;12.00;4.67;;;;;;;;;;5056026;28;20096;-78
2021/04/27 03:38:13;;;;;;;15.30;4.03;;;;;;;;;;5056255;28;20021;-79
2021/04/27 03:40:39;;;;;;;8.43;4.40;;;;;;;;;;5056027;28;20094;-78
2021/04/27 03:43:04;;;;;;;7.33;4.10;;;;;;;;;;5056185;28;20024;-78
2021/04/27 03:45:35;;;;;;;11.93;4.37;;;;;;;;;;5056022;28;20051;-78
2021/04/27 03:48:11;;;;;;;9.97;4.23;;;;;;;;;;5055839;28;20013;-78
2021/04/27 03:50:37;;;;;;;7.03;3.90;;;;;;;;;;5054836;28;20021;-78
2021/04/27 03:53:02;;;;;;;8.67;4.40;;;;;;;;;;5054452;28;20017;-78
2021/04/27 03:55:27;;;;;;;8.90;4.13;;;;;;;;;;5055798;28;20159;-78
2021/04/27 03:57:53;;;;;;;10.90;4.07;;;;;;;;;;5054302;28;20484;-78
2021/04/27 04:00:18;;;;;;;10.93;4.23;;;;;;;;;;5054312;28;20112;-78
2021/04/27 04:02:43;;;;;;;9.33;4.60;;;;;;;;;;5055765;28;20028;-78
2021/04/27 04:05:09;;;;;;;9.10;4.17;;;;;;;;;;5055746;28;20092;-78
2021/04/27 04:07:34;;;;;;;7.73;4.07;;;;;;;;;;5055585;28;20487;-78
2021/04/27 04:09:59;;;;;;;14.17;4.73;;;;;;;;;;5055417;28;20024;-78
2021/04/27 04:12:25;;;;;;;8.23;4.90;;;;;;;;;;5055324;28;20044;-78
2021/04/27 04:14:50;;;;;;;10.73;4.80;;;;;;;;;;5055479;28;20036;-78
2021/04/27 04:17:15;;;;;;;14.50;4.87;;;;;;;;;;5053699;28;20044;-78
2021/04/27 04:19:41;;;;;;;10.03;4.63;;;;;;;;;;5054082;28;20098;-78
2021/04/27 04:22:06;;;;;;;14.83;5.20;;;;;;;;;;5053860;28;20025;-78
2021/04/27 04:24:31;;;;;;;9.73;4.97;;;;;;;;;;5055298;28;20483;-78
2021/04/27 04:26:57;;;;;;;8.77;5.07;;;;;;;;;;5055493;28;20032;-78
2021/04/27 04:29:24;;;;;;;9.90;4.60;;;;;;;;;;5053801;28;20029;-78
2021/04/27 04:31:50;;;;;;;13.37;5.30;;;;;;;;;;5053714;28;20477;-78
2021/04/27 04:34:15;;;;;;;10.47;4.90;;;;;;;;;;5053705;28;20017;-78
2021/04/27 04:36:42;;;;;;;10.17;5.27;;;;;;;;;;5055071;28;20009;-78
2021/04/27 04:39:07;;;;;;;12.50;5.63;;;;;;;;;;5054872;28;20035;-78
2021/04/27 04:41:33;;;;;;;9.00;5.10;;;;;;;;;;5053690;28;20036;-78
2021/04/27 04:43:58;;;;;;;12.07;5.27;;;;;;;;;;5054800;28;20021;-78
2021/04/27 04:46:23;;;;;;;12.70;5.53;;;;;;;;;;5087147;28;20024;-78
2021/04/27 04:48:48;;;;;;;10.73;5.13;;;;;;;;;;5053685;28;20360;-78
2021/04/27 04:51:14;;;;;;;11.80;5.07;;;;;;;;;;5054551;28;20017;-79
2021/04/27 04:53:39;;;;;;;13.00;5.63;;;;;;;;;;5055328;28;20022;-78
2021/04/27 04:56:04;;;;;;;12.90;5.83;;;;;;;;;;5054526;28;20536;-78
2021/04/27 04:58:29;;;;;;;9.63;5.20;;;;;;;;;;5054675;28;20473;-78
2021/04/27 05:00:55;;;;;;;11.93;5.60;;;;;;;;;;5054667;28;20364;-79
2021/04/27 05:03:20;;;;;;;11.70;5.27;;;;;;;;;;5054377;28;20339;-78
2021/04/27 05:05:45;;;;;;;12.37;5.37;;;;;;;;;;5054511;28;20380;-78
2021/04/27 05:08:15;;;;;;;10.63;6.20;;;;;;;;;;5054386;28;20195;-78
2021/04/27 05:10:40;;;;;;;12.27;5.67;;;;;;;;;;5054592;28;20029;-78
2021/04/27 05:13:06;;;;;;;16.23;5.77;;;;;;;;;;5052947;28;20431;-78
2021/04/27 05:15:31;;;;;;;11.77;5.83;;;;;;;;;;5054116;28;20036;-78
2021/04/27 05:17:57;;;;;;;15.20;6.00;;;;;;;;;;5052935;28;20476;-78
2021/04/27 05:20:23;;;;;;;13.43;5.63;;;;;;;;;;5054185;28;20053;-78
2021/04/27 05:22:49;;;;;;;13.43;6.23;;;;;;;;;;5054177;28;20029;-78
2021/04/27 05:25:14;;;;;;;9.83;5.40;;;;;;;;;;5040863;28;20424;-78
2021/04/27 05:27:39;;;;;;;13.67;6.13;;;;;;;;;;5053251;28;20101;-78
2021/04/27 05:30:05;;;;;;;13.40;5.80;;;;;;;;;;5053333;28;20476;-78
2021/04/27 05:32:30;;;;;;;11.33;5.87;;;;;;;;;;5053730;28;20096;-78
2021/04/27 05:34:56;;;;;;;13.90;6.60;;;;;;;;;;5053874;28;20074;-78
2021/04/27 05:37:21;;;;;;;21.33;6.30;;;;;;;;;;5053761;28;20045;-78
2021/04/27 05:39:46;;;;;;;17.50;6.13;;;;;;;;;;5052557;28;20028;-78
2021/04/27 05:42:11;;;;;;;11.40;5.50;;;;;;;;;;5053890;28;20025;-78
2021/04/27 05:44:37;;;;;;;8.27;4.70;;;;;;;;;;5053579;28;20075;-79
2021/04/27 05:47:02;;;;;;;14.17;5.53;;;;;;;;;;5052380;28;20090;-78
2021/04/27 05:49:27;;;;;;;13.90;5.93;;;;;;;;;;5052178;28;20040;-78
2021/04/27 05:51:53;;;;;;;9.73;5.87;;;;;;;;;;5053593;28;20021;-79
2021/04/27 05:54:18;;;;;;;13.13;5.80;;;;;;;;;;5052047;28;20028;-78
2021/04/27 05:56:44;;;;;;;13.57;6.03;;;;;;;;;;5052268;28;20055;-78
2021/04/27 05:59:10;;;;;;;15.37;6.67;;;;;;;;;;5052187;28;20097;-78
2021/04/27 06:01:35;;;;;;;14.27;6.73;;;;;;;;;;5052024;28;20032;-78
2021/04/27 06:04:01;;;;;;;9.83;5.33;;;;;;;;;;5052045;28;20074;-78
2021/04/27 06:06:26;;;;;;;9.43;6.03;;;;;;;;;;5053198;28;20023;-79
2021/04/27 06:08:51;;;;;;;9.07;5.20;;;;;;;;;;5053291;28;20036;-79
2021/04/27 06:11:16;;;;;;;11.32;5.97;;;;;;;;;;5053143;28;20038;-79
2021/04/27 06:13:42;;;;;;;14.03;7.07;;;;;;;;;;5052884;28;20040;-79
2021/04/27 06:16:07;;;;;;;13.87;6.80;;;;;;;;;;5052008;28;20033;-79
2021/04/27 06:18:33;;;;;;;10.53;5.70;;;;;;;;;;5053021;28;20021;-79
2021/04/27 06:20:58;;;;;;;15.60;6.70;;;;;;;;;;5051819;28;20025;-79
2021/04/27 06:23:23;;;;;;;13.87;6.83;;;;;;;;;;5052941;28;20021;-78
2021/04/27 06:25:49;;;;;;;11.27;6.07;;;;;;;;;;5085118;28;20040;-79
2021/04/27 06:28:14;;;;;;;14.40;6.43;;;;;;;;;;5053049;28;20052;-78
2021/04/27 06:30:43;;;;;;;12.20;7.57;;;;;;;;;;5052809;28;20017;-79
2021/04/27 06:33:09;;;;;;;13.80;6.80;;;;;;;;;;5053054;28;20051;-78
2021/04/27 06:35:34;;;;;;;13.63;6.60;;;;;;;;;;5051440;28;20009;-78
2021/04/27 06:37:59;;;;;;;14.83;7.50;;;;;;;;;;5052938;28;20024;-79
2021/04/27 06:40:24;;;;;;;15.70;6.97;;;;;;;;;;5051448;28;20017;-79
2021/04/27 06:42:50;;;;;;;13.10;8.02;;;;;;;;;;5051441;28;20013;-78
2021/04/27 06:45:15;;;;;;;25.23;8.90;;;;;;;;;;5052840;28;20461;-78
2021/04/27 06:47:41;;;;;;;13.27;7.33;;;;;;;;;;5052714;28;20491;-79
2021/04/27 06:50:07;;;;;;;20.48;11.43;;;;;;;;;;5052875;28;20017;-79
2021/04/27 06:52:32;;;;;;;24.57;11.93;;;;;;;;;;5051146;28;20017;-79
2021/04/27 06:54:57;;;;;;;18.27;11.17;;;;;;;;;;5052962;28;20021;-78
2021/04/27 06:57:23;;;;;;;18.63;10.60;;;;;;;;;;5052701;28;20031;-78
2021/04/27 06:59:48;;;;;;;26.27;12.37;;;;;;;;;;5052564;28;20502;-78
2021/04/27 07:02:13;;;;;;;19.83;11.20;;;;;;;;;;5052523;28;20024;-79
2021/04/27 07:04:39;;;;;;;27.27;14.90;;;;;;;;;;5052338;28;20487;-79
2021/04/27 07:07:04;;;;;;;21.60;14.50;;;;;;;;;;5052568;28;20025;-79
2021/04/27 07:09:30;;;;;;;29.23;12.88;;;;;;;;;;5053015;28;20042;-79
2021/04/27 07:11:55;;;;;;;30.20;17.10;;;;;;;;;;5052132;28;20101;-79
2021/04/27 07:14:21;;;;;;;35.75;18.60;;;;;;;;;;5050983;28;20032;-78
2021/04/27 07:16:46;;;;;;;32.10;17.53;;;;;;;;;;5052443;28;20074;-79
2021/04/27 07:19:11;;;;;;;32.63;14.90;;;;;;;;;;5052301;28;20092;-78
2021/04/27 07:21:37;;;;;;;37.87;16.87;;;;;;;;;;5052367;28;20054;-79
2021/04/27 07:24:03;;;;;;;28.90;16.17;;;;;;;;;;5050886;28;20118;-79
2021/04/27 07:26:28;;;;;;;36.57;20.40;;;;;;;;;;5052702;28;20480;-78
2021/04/27 07:28:53;;;;;;;31.03;17.47;;;;;;;;;;5050859;28;20036;-79
2021/04/27 07:31:19;;;;;;;26.73;15.18;;;;;;;;;;5052791;28;20021;-78
2021/04/27 07:33:44;;;;;;;28.63;16.13;;;;;;;;;;5052378;28;20158;-79
2021/04/27 07:36:09;;;;;;;30.52;15.10;;;;;;;;;;5052461;28;20068;-79
2021/04/27 07:38:35;;;;;;;30.50;18.30;;;;;;;;;;5052426;28;20017;-78
2021/04/27 07:41:00;;;;;;;45.08;19.23;;;;;;;;;;5052076;28;20449;-78
2021/04/27 07:43:25;;;;;;;35.00;18.97;;;;;;;;;;5052199;28;20078;-78
2021/04/27 07:45:50;;;;;;;32.70;16.97;;;;;;;;;;5052063;28;20009;-78
2021/04/27 07:48:16;;;;;;;47.92;18.25;;;;;;;;;;5052064;28;20013;-79
2021/04/27 07:50:41;;;;;;;36.08;18.60;;;;;;;;;;5052199;28;20031;-79
2021/04/27 07:53:06;;;;;;;35.08;19.08;;;;;;;;;;5053499;28;20461;-79
2021/04/27 07:55:31;;;;;;;31.55;15.48;;;;;;;;;;5055791;28;20482;-78
2021/04/27 07:57:56;;;;;;;25.55;14.05;;;;;;;;;;5054371;28;20473;-78
2021/04/27 08:00:22;;;;;;;30.23;13.32;;;;;;;;;;5056025;28;20017;-79
2021/04/27 08:02:49;;;;;;;35.67;18.88;;;;;;;;;;5054969;28;20024;-79
2021/04/27 08:05:15;;;;;;;27.85;13.65;;;;;;;;;;5041247;28;20021;-79
2021/04/27 08:07:40;;;;;;;45.65;21.02;;;;;;;;;;5055741;28;20021;-79
2021/04/27 08:10:07;;;;;;;32.22;16.92;;;;;;;;;;5055545;28;20083;-79
2021/04/27 08:12:32;;;;;;;36.28;19.13;;;;;;;;;;5055435;28;20124;-78
2021/04/27 08:14:57;;;;;;;41.42;18.52;;;;;;;;;;5055394;28;20049;-78
2021/04/27 08:17:22;;;;;;;36.35;16.60;;;;;;;;;;5055334;28;20477;-78
2021/04/27 08:19:48;;;;;;;30.00;14.07;;;;;;;;;;5054081;28;20017;-78
2021/04/27 08:22:13;;;;;;;25.10;10.20;;;;;;;;;;5055081;28;20472;-79
2021/04/27 08:24:43;;;;;;;19.48;8.48;;;;;;;;;;5055363;28;20017;-79
2021/04/27 08:27:10;;;;;;;22.73;12.43;;;;;;;;;;5055330;28;20029;-78
2021/04/27 08:29:35;;;;;;;27.15;13.38;;;;;;;;;;5053967;28;20040;-78
2021/04/27 08:32:00;;;;;;;21.70;11.45;;;;;;;;;;5055171;28;20380;-79
2021/04/27 08:34:25;;;;;;;18.92;9.63;;;;;;;;;;5054948;28;20013;-79
2021/04/27 08:36:51;;;;;;;16.70;8.05;;;;;;;;;;5053850;28;20024;-79
2021/04/27 08:39:16;;;;;;;32.55;10.85;;;;;;;;;;5054923;28;20091;-79
2021/04/27 08:41:42;;;;;;;28.95;10.73;;;;;;;;;;5055153;28;20025;-79
2021/04/27 08:44:07;;;;;;;13.93;7.07;;;;;;;;;;5054837;28;20376;-79
2021/04/27 08:46:32;;;;;;;20.02;9.93;;;;;;;;;;5054927;28;20023;-79
2021/04/27 08:48:58;;;;;;;13.35;6.72;;;;;;;;;;5054835;28;20013;-79
2021/04/27 08:51:23;;;;;;;23.02;7.88;;;;;;;;;;5054695;28;20033;-79
2021/04/27 08:53:48;;;;;;;16.85;5.72;;;;;;;;;;5054689;28;20045;-79
2021/04/27 08:56:13;;;;;;;14.55;7.55;;;;;;;;;;5055007;28;20127;-79
2021/04/27 08:58:39;;;;;;;20.08;9.32;;;;;;;;;;5054725;28;20021;-79
2021/04/27 09:01:04;;;;;;;14.85;7.97;;;;;;;;;;5053201;28;20021;-79
2021/04/27 09:03:39;;;;;;;17.67;7.10;;;;;;;;;;5053469;28;20476;-79
2021/04/27 09:06:15;;;;;;;11.80;5.68;;;;;;;;;;5054603;28;20032;-79
2021/04/27 09:08:41;;;;;;;18.13;5.45;;;;;;;;;;5041538;28;20074;-79
2021/04/27 09:11:25;;;;;;;10.30;5.57;;;;;;;;;;5054201;28;20100;-79
2021/04/27 09:14:08;;;;;;;12.07;4.97;;;;;;;;;;5054065;28;20024;-79
2021/04/27 09:16:34;;;;;;;18.42;5.47;;;;;;;;;;5053279;28;20109;-79
2021/04/27 09:18:59;;;;;;;12.60;5.95;;;;;;;;;;5052800;28;20445;-79
2021/04/27 09:21:31;;;;;;;10.20;4.65;;;;;;;;;;5054223;28;20021;-79
2021/04/27 09:23:56;;;;;;;9.98;4.45;;;;;;;;;;5051739;28;20025;-79
2021/04/27 09:26:23;;;;;;;12.73;5.40;;;;;;;;;;5042914;28;20021;-79
2021/04/27 09:28:50;;;;;;;9.13;4.88;;;;;;;;;;5048822;28;20021;-79
2021/04/27 09:31:24;;;;;;;10.82;4.03;;;;;;;;;;5052668;28;20085;-79
2021/04/27 09:33:49;;;;;;;11.07;5.00;;;;;;;;;;5053944;28;20017;-79
2021/04/27 09:36:18;;;;;;;11.77;4.45;;;;;;;;;;5054166;28;20139;-79
2021/04/27 09:38:44;;;;;;;14.35;4.88;;;;;;;;;;5053953;28;20024;-79
2021/04/27 09:41:09;;;;;;;13.27;4.75;;;;;;;;;;5052407;28;20483;-79
2021/04/27 09:43:37;;;;;;;9.98;4.05;;;;;;;;;;5053726;28;20029;-79
2021/04/27 09:46:03;;;;;;;14.13;5.22;;;;;;;;;;5053571;28;20020;-79
2021/04/27 09:48:28;;;;;;;10.23;4.95;;;;;;;;;;5053725;28;20021;-79
2021/04/27 09:50:53;;;;;;;13.56;5.30;;;;;;;;;;5053490;28;20460;-79
2021/04/27 09:53:37;;;;;;;7.72;4.10;;;;;;;;;;5052240;28;20096;-79
2021/04/27 09:56:02;;;;;;;10.15;4.32;;;;;;;;;;5052377;28;20025;-79
2021/04/27 09:58:27;;;;;;;7.57;4.05;;;;;;;;;;5047284;28;20040;-79
2021/04/27 10:00:55;;;;;;;9.57;4.72;;;;;;;;;;5051912;28;20499;-79
2021/04/27 10:03:20;;;;;;;8.70;4.00;;;;;;;;;;5053352;28;20021;-79
2021/04/27 10:05:46;;;;;;;12.45;4.28;;;;;;;;;;5053397;28;20020;-79
2021/04/27 10:08:12;;;;;;;16.92;4.40;;;;;;;;;;5052038;28;20465;-79
2021/04/27 10:10:37;;;;;;;12.82;4.40;;;;;;;;;;5053285;28;20013;-79
2021/04/27 10:13:04;;;;;;;11.70;5.35;;;;;;;;;;5042086;28;20538;-79
2021/04/27 10:15:29;;;;;;;9.05;4.90;;;;;;;;;;5048688;28;20017;-79
2021/04/27 10:17:59;;;;;;;9.45;4.90;;;;;;;;;;5053396;28;20468;-79
2021/04/27 10:20:24;;;;;;;9.52;5.20;;;;;;;;;;5053220;28;20460;-79
2021/04/27 10:22:49;;;;;;;11.48;4.75;;;;;;;;;;5053123;28;20035;-79
2021/04/27 10:25:20;;;;;;;15.95;4.10;;;;;;;;;;5052971;28;20021;-79
2021/04/27 10:27:45;;;;;;;16.13;5.53;;;;;;;;;;5053021;28;20025;-79
2021/04/27 10:30:17;;;;;;;10.55;4.68;;;;;;;;;;5053022;28;20492;-79
2021/04/27 10:32:42;;;;;;;10.38;4.75;;;;;;;;;;5052661;28;20024;-79
2021/04/27 10:35:09;;;;;;;6.38;3.90;;;;;;;;;;5052950;28;20476;-79
2021/04/27 10:38:07;;;;;;;6.45;3.90;;;;;;;;;;5052690;28;20475;-79
2021/04/27 10:40:51;;;;;;;14.18;5.32;;;;;;;;;;5031905;28;20469;-79
2021/04/27 10:43:22;;;;;;;8.75;3.63;;;;;;;;;;5040683;28;20028;-79
2021/04/27 10:45:47;;;;;;;8.77;4.37;;;;;;;;;;5052639;28;20032;-79
2021/04/27 10:48:25;;;;;;;15.00;5.35;;;;;;;;;;5051477;28;20485;-79
2021/04/27 10:50:50;;;;;;;7.85;3.53;;;;;;;;;;5052451;28;20027;-79
2021/04/27 10:53:29;;;;;;;7.80;4.55;;;;;;;;;;5052793;28;20029;-79
2021/04/27 10:55:54;;;;;;;8.18;3.85;;;;;;;;;;5052676;28;20028;-79
2021/04/27 10:58:38;;;;;;;12.00;3.88;;;;;;;;;;5052389;28;20457;-79
2021/04/27 11:01:16;;;;;;;12.65;4.50;;;;;;;;;;5052543;28;20025;-79
2021/04/27 11:03:51;;;;;;;9.25;5.10;;;;;;;;;;5051295;28;20009;-79
2021/04/27 11:06:17;;;;;;;15.27;4.50;;;;;;;;;;5051073;28;20021;-79
2021/04/27 11:08:49;;;;;;;10.80;4.80;;;;;;;;;;5051228;28;20098;-79
2021/04/27 11:11:35;;;;;;;7.57;4.20;;;;;;;;;;5052452;28;20487;-79
2021/04/27 11:14:12;;;;;;;9.23;4.65;;;;;;;;;;5052007;28;20040;-79
2021/04/27 11:16:38;;;;;;;9.45;4.68;;;;;;;;;;5052672;28;20028;-79
2021/04/27 11:19:08;;;;;;;9.18;4.20;;;;;;;;;;5052258;28;20010;-79
2021/04/27 11:21:34;;;;;;;14.55;4.78;;;;;;;;;;5052392;28;20013;-79
2021/04/27 11:24:02;;;;;;;12.63;4.38;;;;;;;;;;5052145;28;20024;-79
2021/04/27 11:26:33;;;;;;;6.00;3.65;;;;;;;;;;5051818;28;20017;-79
2021/04/27 11:29:05;;;;;;;8.27;4.13;;;;;;;;;;5054928;28;20480;-79
2021/04/27 11:31:30;;;;;;;10.13;4.63;;;;;;;;;;5054871;28;20397;-79
2021/04/27 11:33:59;;;;;;;8.82;4.28;;;;;;;;;;5056124;28;20014;-79
2021/04/27 11:36:37;;;;;;;8.50;4.90;;;;;;;;;;5054851;28;20009;-79
2021/04/27 11:39:22;;;;;;;6.70;3.70;;;;;;;;;;5056078;28;20477;-79
2021/04/27 11:41:48;;;;;;;12.43;5.53;;;;;;;;;;5056225;28;20044;-79
2021/04/27 11:44:14;;;;;;;9.65;3.50;;;;;;;;;;5054577;28;20040;-79
2021/04/27 11:46:58;;;;;;;12.13;4.53;;;;;;;;;;5056044;28;20021;-79
2021/04/27 11:49:42;;;;;;;7.18;3.88;;;;;;;;;;5055833;28;20468;-79
2021/04/27 11:52:07;;;;;;;12.48;5.32;;;;;;;;;;5056117;28;20021;-79
2021/04/27 11:54:36;;;;;;;9.35;4.15;;;;;;;;;;5055729;28;20604;-79
2021/04/27 11:57:01;;;;;;;9.43;3.58;;;;;;;;;;5055957;28;20017;-79
2021/04/27 11:59:27;;;;;;;5.85;3.70;;;;;;;;;;5055606;28;20020;-79
2021/04/27 12:02:02;;;;;;;9.45;3.05;;;;;;;;;;5054454;28;20021;-79
2021/04/27 12:04:27;;;;;;;8.93;4.60;;;;;;;;;;5055501;28;20017;-79
2021/04/27 12:07:00;;;;;;;28.35;5.55;;;;;;;;;;5054318;28;20375;-79
2021/04/27 12:09:25;;;;;;;6.00;3.10;;;;;;;;;;5055604;28;20021;-79
2021/04/27 12:11:51;;;;;;;10.45;3.78;;;;;;;;;;5055118;28;20449;-79
2021/04/27 12:14:17;;;;;;;7.22;3.97;;;;;;;;;;5055499;28;20025;-79
2021/04/27 12:16:45;;;;;;;9.95;5.65;;;;;;;;;;5055446;28;20013;-79
2021/04/27 12:19:17;;;;;;;13.77;4.35;;;;;;;;;;5055315;28;20027;-79
2021/04/27 12:21:48;;;;;;;6.15;3.88;;;;;;;;;;5055408;28;20031;-79
2021/04/27 12:24:21;;;;;;;10.30;4.30;;;;;;;;;;5053859;28;20025;-79
2021/04/27 12:26:51;;;;;;;9.30;4.22;;;;;;;;;;5055381;28;20087;-79
2021/04/27 12:29:22;;;;;;;8.63;4.05;;;;;;;;;;5054990;28;20021;-79
2021/04/27 12:31:48;;;;;;;12.30;3.85;;;;;;;;;;5053840;28;20021;-79
2021/04/27 12:34:14;;;;;;;5.75;3.25;;;;;;;;;;5055108;28;20067;-79
2021/04/27 12:36:42;;;;;;;43.72;4.70;;;;;;;;;;5054993;28;20491;-79
2021/04/27 12:39:22;;;;;;;7.97;4.18;;;;;;;;;;5053397;28;20021;-79
2021/04/27 12:41:48;;;;;;;8.32;3.67;;;;;;;;;;5054857;28;20076;-79
2021/04/27 12:44:32;;;;;;;6.78;3.63;;;;;;;;;;5054934;28;20033;-79
2021/04/27 12:46:59;;;;;;;8.32;3.40;;;;;;;;;;5054966;28;20017;-79
2021/04/27 12:49:32;;;;;;;10.02;4.07;;;;;;;;;;5054491;28;20536;-79
2021/04/27 12:52:07;;;;;;;5.75;3.55;;;;;;;;;;5054835;28;20052;-79
2021/04/27 12:54:32;;;;;;;7.32;3.42;;;;;;;;;;5053185;28;20020;-79
2021/04/27 12:57:02;;;;;;;10.80;3.88;;;;;;;;;;5053390;28;20477;-79
2021/04/27 12:59:31;;;;;;;48.83;5.80;;;;;;;;;;5053199;28;20048;-79
2021/04/27 13:01:58;;;;;;;15.32;4.50;;;;;;;;;;5054824;28;20036;-79
2021/04/27 13:04:23;;;;;;;73.55;8.23;;;;;;;;;;5054755;28;20354;-79
2021/04/27 13:06:48;;;;;;;40.85;5.05;;;;;;;;;;5053101;28;20028;-79
2021/04/27 13:09:17;;;;;;;18.70;3.38;;;;;;;;;;5053302;28;20173;-79
2021/04/27 13:11:57;;;;;;;18.25;4.93;;;;;;;;;;5050251;28;20021;-80
2021/04/27 13:14:24;;;;;;;5.93;3.58;;;;;;;;;;5053028;28;20017;-79
2021/04/27 13:16:49;;;;;;;10.85;4.28;;;;;;;;;;5054206;28;20404;-79
2021/04/27 13:19:14;;;;;;;8.90;3.75;;;;;;;;;;5054317;28;20017;-79
2021/04/27 13:21:41;;;;;;;6.45;3.78;;;;;;;;;;5054397;28;20118;-79
2021/04/27 13:24:10;;;;;;;11.05;3.97;;;;;;;;;;5054446;28;20028;-79
2021/04/27 13:26:35;;;;;;;7.60;3.25;;;;;;;;;;5054126;28;20024;-79
2021/04/27 13:29:01;;;;;;;7.00;3.75;;;;;;;;;;5048227;28;20389;-79
2021/04/27 13:31:26;;;;;;;6.95;3.60;;;;;;;;;;5047576;28;20017;-79
2021/04/27 13:33:51;;;;;;;7.00;4.30;;;;;;;;;;5052591;28;20533;-79
2021/04/27 13:36:19;;;;;;;10.10;3.80;;;;;;;;;;5054170;28;20473;-79
2021/04/27 13:38:45;;;;;;;6.72;3.72;;;;;;;;;;5054049;28;20088;-79
2021/04/27 13:41:10;;;;;;;8.23;3.30;;;;;;;;;;5053831;28;20099;-79
2021/04/27 13:43:37;;;;;;;9.02;3.97;;;;;;;;;;5053815;28;20029;-79
2021/04/27 13:46:03;;;;;;;8.88;3.83;;;;;;;;;;5053774;28;20437;-79
2021/04/27 13:48:29;;;;;;;8.57;4.45;;;;;;;;;;5052558;28;20044;-79
2021/04/27 13:51:04;;;;;;;5.78;2.88;;;;;;;;;;5050792;28;20020;-79
2021/04/27 13:53:31;;;;;;;9.93;3.45;;;;;;;;;;5054031;28;20017;-79
2021/04/27 13:55:57;;;;;;;8.85;4.80;;;;;;;;;;5053863;28;20036;-79
2021/04/27 13:58:22;;;;;;;9.63;5.05;;;;;;;;;;5053884;28;20017;-79
2021/04/27 14:00:47;;;;;;;10.15;4.35;;;;;;;;;;5052584;28;20483;-79
2021/04/27 14:03:12;;;;;;;7.25;3.72;;;;;;;;;;5053490;28;20065;-79
2021/04/27 14:05:39;;;;;;;8.57;3.75;;;;;;;;;;5053540;28;20361;-79
2021/04/27 14:08:05;;;;;;;6.95;4.05;;;;;;;;;;5053320;28;20025;-79
2021/04/27 14:10:30;;;;;;;6.93;3.75;;;;;;;;;;5053541;28;20028;-79
2021/04/27 14:12:56;;;;;;;11.55;3.95;;;;;;;;;;5053113;28;20120;-79
2021/04/27 14:15:22;;;;;;;10.40;4.07;;;;;;;;;;5052681;28;20021;-79
2021/04/27 14:17:48;;;;;;;6.00;3.28;;;;;;;;;;5051196;28;20029;-79
2021/04/27 14:20:15;;;;;;;9.00;3.95;;;;;;;;;;5051016;28;20029;-80
2021/04/27 14:22:40;;;;;;;5.93;3.08;;;;;;;;;;5051425;28;20033;-79
2021/04/27 14:25:07;;;;;;;7.30;3.70;;;;;;;;;;5052501;28;20346;-79
2021/04/27 14:27:32;;;;;;;11.80;4.60;;;;;;;;;;5052478;28;20027;-79
2021/04/27 14:29:57;;;;;;;8.30;3.25;;;;;;;;;;5051105;28;20516;-79
2021/04/27 14:32:23;;;;;;;5.10;3.20;;;;;;;;;;5051631;28;20074;-79